sensor_id;sensor_type;location;lat;lon;timestamp;P1;durP1;ratioP1;P2;durP2;ratioP2
1410;SDS011;700;51.906;8.404;2022-12-29T00:03:13;1.93;;;1.23;;
1410;SDS011;700;51.906;8.404;2022-12-29T00:08:16;2.07;;;1.30;;
1410;SDS011;700;51.906;8.404;2022-12-29T00:13:19;2.33;;;1.40;;
1410;SDS011;700;51.906;8.404;2022-12-29T00:18:41;1.60;;;1.20;;
1410;SDS011;700;51.906;8.404;2022-12-29T00:23:41;2.40;;;1.30;;
1410;SDS011;700;51.906;8.404;2022-12-29T00:29:03;2.17;;;1.37;;
1410;SDS011;700;51.906;8.404;2022-12-29T00:34:22;2.20;;;1.67;;
1410;SDS011;700;51.906;8.404;2022-12-29T00:39:41;1.93;;;1.10;;
1410;SDS011;700;51.906;8.404;2022-12-29T00:45:00;1.70;;;1.20;;
1410;SDS011;700;51.906;8.404;2022-12-29T00:50:01;1.80;;;1.27;;
1410;SDS011;700;51.906;8.404;2022-12-29T00:55:03;1.53;;;1.20;;
1410;SDS011;700;51.906;8.404;2022-12-29T01:00:07;1.83;;;1.30;;
1410;SDS011;700;51.906;8.404;2022-12-29T01:05:08;1.60;;;1.07;;
1410;SDS011;700;51.906;8.404;2022-12-29T01:10:09;1.37;;;1.03;;
1410;SDS011;700;51.906;8.404;2022-12-29T01:15:10;2.33;;;1.20;;
1410;SDS011;700;51.906;8.404;2022-12-29T01:20:13;1.57;;;1.10;;
1410;SDS011;700;51.906;8.404;2022-12-29T01:25:19;2.43;;;1.93;;
1410;SDS011;700;51.906;8.404;2022-12-29T01:30:22;2.37;;;1.00;;
1410;SDS011;700;51.906;8.404;2022-12-29T01:35:22;2.40;;;1.10;;
1410;SDS011;700;51.906;8.404;2022-12-29T01:40:23;1.80;;;1.00;;
1410;SDS011;700;51.906;8.404;2022-12-29T01:45:24;1.50;;;0.90;;
1410;SDS011;700;51.906;8.404;2022-12-29T01:50:30;1.40;;;0.83;;
1410;SDS011;700;51.906;8.404;2022-12-29T01:55:34;1.97;;;0.80;;
1410;SDS011;700;51.906;8.404;2022-12-29T02:00:44;1.30;;;0.80;;
1410;SDS011;700;51.906;8.404;2022-12-29T02:11:06;1.30;;;0.87;;
1410;SDS011;700;51.906;8.404;2022-12-29T02:26:48;1.73;;;0.80;;
1410;SDS011;700;51.906;8.404;2022-12-29T02:37:06;1.30;;;0.70;;
1410;SDS011;700;51.906;8.404;2022-12-29T02:47:38;1.00;;;0.60;;
1410;SDS011;700;51.906;8.404;2022-12-29T02:53:07;2.07;;;0.63;;
1410;SDS011;700;51.906;8.404;2022-12-29T02:58:20;5.57;;;0.80;;
1410;SDS011;700;51.906;8.404;2022-12-29T03:03:30;1.10;;;0.60;;
1410;SDS011;700;51.906;8.404;2022-12-29T03:09:03;1.00;;;0.60;;
1410;SDS011;700;51.906;8.404;2022-12-29T03:14:20;1.17;;;0.53;;
1410;SDS011;700;51.906;8.404;2022-12-29T03:19:46;1.20;;;0.60;;
1410;SDS011;700;51.906;8.404;2022-12-29T03:25:06;1.20;;;0.70;;
1410;SDS011;700;51.906;8.404;2022-12-29T03:30:10;2.43;;;1.03;;
1410;SDS011;700;51.906;8.404;2022-12-29T03:35:13;1.20;;;0.70;;
1410;SDS011;700;51.906;8.404;2022-12-29T03:40:16;1.10;;;0.77;;
1410;SDS011;700;51.906;8.404;2022-12-29T03:45:20;1.27;;;0.70;;
1410;SDS011;700;51.906;8.404;2022-12-29T03:50:24;1.00;;;0.60;;
1410;SDS011;700;51.906;8.404;2022-12-29T03:55:25;1.13;;;0.70;;
1410;SDS011;700;51.906;8.404;2022-12-29T04:00:26;3.33;;;0.80;;
1410;SDS011;700;51.906;8.404;2022-12-29T04:05:26;1.67;;;0.67;;
1410;SDS011;700;51.906;8.404;2022-12-29T04:10:27;1.50;;;0.90;;
1410;SDS011;700;51.906;8.404;2022-12-29T04:15:27;1.73;;;0.70;;
1410;SDS011;700;51.906;8.404;2022-12-29T04:20:28;1.40;;;0.70;;
1410;SDS011;700;51.906;8.404;2022-12-29T04:25:48;2.23;;;0.70;;
1410;SDS011;700;51.906;8.404;2022-12-29T04:30:48;3.60;;;0.80;;
1410;SDS011;700;51.906;8.404;2022-12-29T04:35:52;2.37;;;1.20;;
1410;SDS011;700;51.906;8.404;2022-12-29T04:40:55;1.20;;;0.67;;
1410;SDS011;700;51.906;8.404;2022-12-29T04:45:59;1.37;;;0.80;;
1410;SDS011;700;51.906;8.404;2022-12-29T04:51:00;2.10;;;0.80;;
1410;SDS011;700;51.906;8.404;2022-12-29T04:56:00;2.43;;;0.90;;
1410;SDS011;700;51.906;8.404;2022-12-29T05:01:01;1.80;;;0.80;;
1410;SDS011;700;51.906;8.404;2022-12-29T05:06:02;2.10;;;0.83;;
1410;SDS011;700;51.906;8.404;2022-12-29T05:11:03;1.40;;;0.80;;
1410;SDS011;700;51.906;8.404;2022-12-29T05:16:03;1.30;;;0.70;;
1410;SDS011;700;51.906;8.404;2022-12-29T05:21:04;1.20;;;0.67;;
1410;SDS011;700;51.906;8.404;2022-12-29T05:26:09;1.30;;;0.70;;
1410;SDS011;700;51.906;8.404;2022-12-29T05:31:12;1.10;;;0.70;;
1410;SDS011;700;51.906;8.404;2022-12-29T05:36:15;4.20;;;0.90;;
1410;SDS011;700;51.906;8.404;2022-12-29T05:41:17;1.67;;;0.80;;
1410;SDS011;700;51.906;8.404;2022-12-29T05:46:18;1.50;;;0.83;;
1410;SDS011;700;51.906;8.404;2022-12-29T05:51:18;1.13;;;0.80;;
1410;SDS011;700;51.906;8.404;2022-12-29T05:56:21;1.80;;;1.10;;
1410;SDS011;700;51.906;8.404;2022-12-29T06:01:22;2.13;;;0.73;;
1410;SDS011;700;51.906;8.404;2022-12-29T06:06:23;1.30;;;0.73;;
1410;SDS011;700;51.906;8.404;2022-12-29T06:11:23;2.43;;;0.80;;
1410;SDS011;700;51.906;8.404;2022-12-29T06:16:24;1.10;;;0.60;;
1410;SDS011;700;51.906;8.404;2022-12-29T06:21:25;1.30;;;0.70;;
1410;SDS011;700;51.906;8.404;2022-12-29T06:26:25;3.60;;;0.87;;
1410;SDS011;700;51.906;8.404;2022-12-29T06:31:30;1.43;;;0.90;;
1410;SDS011;700;51.906;8.404;2022-12-29T06:36:31;1.93;;;1.10;;
1410;SDS011;700;51.906;8.404;2022-12-29T06:41:31;2.90;;;1.30;;
1410;SDS011;700;51.906;8.404;2022-12-29T06:46:35;1.40;;;0.80;;
1410;SDS011;700;51.906;8.404;2022-12-29T06:51:40;3.00;;;0.90;;
1410;SDS011;700;51.906;8.404;2022-12-29T06:56:43;2.10;;;1.27;;
1410;SDS011;700;51.906;8.404;2022-12-29T07:01:44;1.97;;;0.87;;
1410;SDS011;700;51.906;8.404;2022-12-29T07:06:50;1.47;;;0.80;;
1410;SDS011;700;51.906;8.404;2022-12-29T07:11:52;1.50;;;0.80;;
1410;SDS011;700;51.906;8.404;2022-12-29T07:16:53;1.30;;;0.70;;
1410;SDS011;700;51.906;8.404;2022-12-29T07:21:54;1.60;;;1.00;;
1410;SDS011;700;51.906;8.404;2022-12-29T07:26:57;1.73;;;1.20;;
1410;SDS011;700;51.906;8.404;2022-12-29T07:32:00;3.10;;;1.20;;
1410;SDS011;700;51.906;8.404;2022-12-29T07:37:01;2.80;;;1.17;;
1410;SDS011;700;51.906;8.404;2022-12-29T07:42:01;3.00;;;1.30;;
1410;SDS011;700;51.906;8.404;2022-12-29T07:47:02;4.10;;;1.60;;
1410;SDS011;700;51.906;8.404;2022-12-29T07:52:03;4.47;;;1.67;;
1410;SDS011;700;51.906;8.404;2022-12-29T07:57:06;2.80;;;1.73;;
1410;SDS011;700;51.906;8.404;2022-12-29T08:02:09;6.87;;;2.80;;
1410;SDS011;700;51.906;8.404;2022-12-29T08:07:13;2.70;;;1.30;;
1410;SDS011;700;51.906;8.404;2022-12-29T08:12:16;3.50;;;1.37;;
1410;SDS011;700;51.906;8.404;2022-12-29T08:17:17;5.00;;;1.43;;
1410;SDS011;700;51.906;8.404;2022-12-29T08:22:18;1.90;;;1.10;;
1410;SDS011;700;51.906;8.404;2022-12-29T08:27:19;4.07;;;1.50;;
1410;SDS011;700;51.906;8.404;2022-12-29T08:32:19;2.13;;;1.10;;
1410;SDS011;700;51.906;8.404;2022-12-29T08:37:22;2.53;;;1.30;;
1410;SDS011;700;51.906;8.404;2022-12-29T08:42:23;4.30;;;1.50;;
1410;SDS011;700;51.906;8.404;2022-12-29T08:47:27;4.10;;;1.40;;
1410;SDS011;700;51.906;8.404;2022-12-29T08:52:30;1.70;;;1.10;;
1410;SDS011;700;51.906;8.404;2022-12-29T08:57:30;2.90;;;1.23;;
1410;SDS011;700;51.906;8.404;2022-12-29T09:02:31;1.97;;;1.00;;
1410;SDS011;700;51.906;8.404;2022-12-29T09:07:31;6.53;;;1.70;;
1410;SDS011;700;51.906;8.404;2022-12-29T09:12:34;2.57;;;1.50;;
1410;SDS011;700;51.906;8.404;2022-12-29T09:17:37;5.60;;;2.83;;
1410;SDS011;700;51.906;8.404;2022-12-29T09:22:44;4.20;;;1.00;;
1410;SDS011;700;51.906;8.404;2022-12-29T09:27:48;2.90;;;1.40;;
1410;SDS011;700;51.906;8.404;2022-12-29T09:32:52;2.73;;;1.20;;
1410;SDS011;700;51.906;8.404;2022-12-29T09:37:53;4.77;;;1.33;;
1410;SDS011;700;51.906;8.404;2022-12-29T09:43:09;3.73;;;1.10;;
1410;SDS011;700;51.906;8.404;2022-12-29T09:48:27;4.40;;;1.33;;
1410;SDS011;700;51.906;8.404;2022-12-29T09:53:45;5.93;;;1.53;;
1410;SDS011;700;51.906;8.404;2022-12-29T09:59:00;6.47;;;1.17;;
1410;SDS011;700;51.906;8.404;2022-12-29T10:04:09;1.80;;;1.20;;
1410;SDS011;700;51.906;8.404;2022-12-29T10:09:22;3.53;;;1.70;;
1410;SDS011;700;51.906;8.404;2022-12-29T10:24:54;4.13;;;1.73;;
1410;SDS011;700;51.906;8.404;2022-12-29T10:29:56;8.00;;;1.90;;
1410;SDS011;700;51.906;8.404;2022-12-29T10:35:01;3.73;;;1.97;;
1410;SDS011;700;51.906;8.404;2022-12-29T10:45:33;2.20;;;1.23;;
1410;SDS011;700;51.906;8.404;2022-12-29T10:50:34;3.43;;;1.20;;
1410;SDS011;700;51.906;8.404;2022-12-29T10:55:42;3.40;;;1.37;;
1410;SDS011;700;51.906;8.404;2022-12-29T11:00:50;5.10;;;1.40;;
1410;SDS011;700;51.906;8.404;2022-12-29T11:05:56;2.70;;;1.20;;
1410;SDS011;700;51.906;8.404;2022-12-29T11:11:07;2.30;;;1.23;;
1410;SDS011;700;51.906;8.404;2022-12-29T11:16:11;8.37;;;1.53;;
1410;SDS011;700;51.906;8.404;2022-12-29T11:26:33;5.70;;;2.00;;
1410;SDS011;700;51.906;8.404;2022-12-29T11:31:43;5.10;;;1.23;;
1410;SDS011;700;51.906;8.404;2022-12-29T11:36:46;5.87;;;1.37;;
1410;SDS011;700;51.906;8.404;2022-12-29T11:41:51;7.73;;;1.60;;
1410;SDS011;700;51.906;8.404;2022-12-29T11:46:53;5.77;;;1.63;;
1410;SDS011;700;51.906;8.404;2022-12-29T11:51:54;6.43;;;1.80;;
1410;SDS011;700;51.906;8.404;2022-12-29T11:56:57;5.10;;;1.70;;
1410;SDS011;700;51.906;8.404;2022-12-29T12:01:58;5.03;;;1.63;;
1410;SDS011;700;51.906;8.404;2022-12-29T12:07:32;6.00;;;1.57;;
1410;SDS011;700;51.906;8.404;2022-12-29T12:33:42;6.67;;;1.70;;
1410;SDS011;700;51.906;8.404;2022-12-29T12:44:11;2.87;;;1.27;;
1410;SDS011;700;51.906;8.404;2022-12-29T13:00:17;7.83;;;1.80;;
1410;SDS011;700;51.906;8.404;2022-12-29T13:21:03;5.50;;;1.67;;
1410;SDS011;700;51.906;8.404;2022-12-29T13:26:37;5.07;;;1.67;;
1410;SDS011;700;51.906;8.404;2022-12-29T13:37:17;8.30;;;2.00;;
1410;SDS011;700;51.906;8.404;2022-12-29T13:42:20;7.93;;;2.17;;
1410;SDS011;700;51.906;8.404;2022-12-29T13:52:44;4.80;;;1.43;;
1410;SDS011;700;51.906;8.404;2022-12-29T13:57:53;4.53;;;1.60;;
1410;SDS011;700;51.906;8.404;2022-12-29T14:08:40;5.97;;;2.80;;
1410;SDS011;700;51.906;8.404;2022-12-29T14:13:42;7.90;;;2.13;;
1410;SDS011;700;51.906;8.404;2022-12-29T14:18:48;3.53;;;2.20;;
1410;SDS011;700;51.906;8.404;2022-12-29T14:23:50;2.90;;;1.53;;
1410;SDS011;700;51.906;8.404;2022-12-29T14:28:51;6.70;;;1.57;;
1410;SDS011;700;51.906;8.404;2022-12-29T14:44:48;4.80;;;1.83;;
1410;SDS011;700;51.906;8.404;2022-12-29T14:49:55;6.83;;;2.33;;
1410;SDS011;700;51.906;8.404;2022-12-29T15:05:23;6.50;;;1.60;;
1410;SDS011;700;51.906;8.404;2022-12-29T15:10:38;5.10;;;1.60;;
1410;SDS011;700;51.906;8.404;2022-12-29T15:15:46;4.10;;;2.23;;
1410;SDS011;700;51.906;8.404;2022-12-29T15:20:49;6.40;;;2.10;;
1410;SDS011;700;51.906;8.404;2022-12-29T15:25:57;8.83;;;2.50;;
1410;SDS011;700;51.906;8.404;2022-12-29T15:31:03;6.33;;;2.07;;
1410;SDS011;700;51.906;8.404;2022-12-29T15:36:25;6.63;;;1.90;;
1410;SDS011;700;51.906;8.404;2022-12-29T15:41:36;5.77;;;1.47;;
1410;SDS011;700;51.906;8.404;2022-12-29T15:47:06;4.47;;;1.60;;
1410;SDS011;700;51.906;8.404;2022-12-29T15:52:20;8.23;;;4.30;;
1410;SDS011;700;51.906;8.404;2022-12-29T15:57:23;4.50;;;1.83;;
1410;SDS011;700;51.906;8.404;2022-12-29T16:02:24;5.73;;;1.93;;
1410;SDS011;700;51.906;8.404;2022-12-29T16:07:27;6.80;;;1.87;;
1410;SDS011;700;51.906;8.404;2022-12-29T16:12:35;6.67;;;1.83;;
1410;SDS011;700;51.906;8.404;2022-12-29T16:17:44;8.10;;;2.20;;
1410;SDS011;700;51.906;8.404;2022-12-29T16:22:54;5.87;;;1.80;;
1410;SDS011;700;51.906;8.404;2022-12-29T16:27:58;8.73;;;1.60;;
1410;SDS011;700;51.906;8.404;2022-12-29T16:33:01;5.13;;;1.43;;
1410;SDS011;700;51.906;8.404;2022-12-29T16:38:16;7.20;;;2.13;;
1410;SDS011;700;51.906;8.404;2022-12-29T16:48:23;10.93;;;2.03;;
1410;SDS011;700;51.906;8.404;2022-12-29T16:53:37;4.50;;;1.43;;
1410;SDS011;700;51.906;8.404;2022-12-29T16:58:44;2.47;;;1.43;;
1410;SDS011;700;51.906;8.404;2022-12-29T17:03:53;4.57;;;1.33;;
1410;SDS011;700;51.906;8.404;2022-12-29T17:08:58;4.43;;;1.40;;
1410;SDS011;700;51.906;8.404;2022-12-29T17:13:59;3.50;;;1.50;;
1410;SDS011;700;51.906;8.404;2022-12-29T17:18:59;3.80;;;1.20;;
1410;SDS011;700;51.906;8.404;2022-12-29T17:24:00;5.07;;;1.73;;
1410;SDS011;700;51.906;8.404;2022-12-29T17:29:01;8.50;;;1.80;;
1410;SDS011;700;51.906;8.404;2022-12-29T17:34:02;3.30;;;1.50;;
1410;SDS011;700;51.906;8.404;2022-12-29T17:39:04;6.17;;;1.30;;
1410;SDS011;700;51.906;8.404;2022-12-29T17:44:13;3.70;;;1.50;;
1410;SDS011;700;51.906;8.404;2022-12-29T17:49:19;4.80;;;1.63;;
1410;SDS011;700;51.906;8.404;2022-12-29T17:54:22;3.10;;;1.30;;
1410;SDS011;700;51.906;8.404;2022-12-29T17:59:27;4.90;;;1.40;;
1410;SDS011;700;51.906;8.404;2022-12-29T18:04:30;8.90;;;4.73;;
1410;SDS011;700;51.906;8.404;2022-12-29T18:09:30;7.40;;;2.10;;
1410;SDS011;700;51.906;8.404;2022-12-29T18:14:31;8.13;;;2.10;;
1410;SDS011;700;51.906;8.404;2022-12-29T18:19:34;6.00;;;1.80;;
1410;SDS011;700;51.906;8.404;2022-12-29T18:24:34;3.13;;;1.57;;
1410;SDS011;700;51.906;8.404;2022-12-29T18:29:35;6.27;;;2.50;;
1410;SDS011;700;51.906;8.404;2022-12-29T18:34:36;7.73;;;2.90;;
1410;SDS011;700;51.906;8.404;2022-12-29T18:39:36;5.37;;;2.63;;
1410;SDS011;700;51.906;8.404;2022-12-29T18:44:37;7.97;;;1.97;;
1410;SDS011;700;51.906;8.404;2022-12-29T18:49:37;7.30;;;2.00;;
1410;SDS011;700;51.906;8.404;2022-12-29T18:54:38;5.20;;;1.50;;
1410;SDS011;700;51.906;8.404;2022-12-29T18:59:39;6.50;;;1.60;;
1410;SDS011;700;51.906;8.404;2022-12-29T19:04:40;2.33;;;1.10;;
1410;SDS011;700;51.906;8.404;2022-12-29T19:09:43;4.23;;;2.30;;
1410;SDS011;700;51.906;8.404;2022-12-29T19:14:44;4.00;;;1.40;;
1410;SDS011;700;51.906;8.404;2022-12-29T19:19:44;3.07;;;1.10;;
1410;SDS011;700;51.906;8.404;2022-12-29T19:24:47;1.60;;;1.20;;
1410;SDS011;700;51.906;8.404;2022-12-29T19:29:48;3.43;;;1.33;;
1410;SDS011;700;51.906;8.404;2022-12-29T19:34:49;3.83;;;1.90;;
1410;SDS011;700;51.906;8.404;2022-12-29T19:39:49;3.43;;;1.60;;
1410;SDS011;700;51.906;8.404;2022-12-29T19:44:52;2.63;;;1.40;;
1410;SDS011;700;51.906;8.404;2022-12-29T19:49:56;3.17;;;1.40;;
1410;SDS011;700;51.906;8.404;2022-12-29T19:54:57;3.03;;;1.30;;
1410;SDS011;700;51.906;8.404;2022-12-29T19:59:58;5.80;;;1.50;;
1410;SDS011;700;51.906;8.404;2022-12-29T20:04:59;3.37;;;1.60;;
1410;SDS011;700;51.906;8.404;2022-12-29T20:10:00;4.43;;;2.00;;
1410;SDS011;700;51.906;8.404;2022-12-29T20:15:00;5.90;;;2.00;;
1410;SDS011;700;51.906;8.404;2022-12-29T20:20:01;3.30;;;1.60;;
1410;SDS011;700;51.906;8.404;2022-12-29T20:25:04;5.70;;;1.70;;
1410;SDS011;700;51.906;8.404;2022-12-29T20:30:09;7.73;;;2.57;;
1410;SDS011;700;51.906;8.404;2022-12-29T20:35:10;8.23;;;2.27;;
1410;SDS011;700;51.906;8.404;2022-12-29T20:40:11;8.73;;;2.33;;
1410;SDS011;700;51.906;8.404;2022-12-29T20:45:12;9.30;;;2.27;;
1410;SDS011;700;51.906;8.404;2022-12-29T20:50:13;8.73;;;2.40;;
1410;SDS011;700;51.906;8.404;2022-12-29T20:55:13;6.57;;;2.20;;
1410;SDS011;700;51.906;8.404;2022-12-29T21:00:17;6.17;;;1.90;;
1410;SDS011;700;51.906;8.404;2022-12-29T21:05:20;7.17;;;2.30;;
1410;SDS011;700;51.906;8.404;2022-12-29T21:10:22;7.63;;;2.80;;
1410;SDS011;700;51.906;8.404;2022-12-29T21:15:23;9.10;;;2.50;;
1410;SDS011;700;51.906;8.404;2022-12-29T21:20:24;12.60;;;3.60;;
1410;SDS011;700;51.906;8.404;2022-12-29T21:25:32;9.53;;;2.77;;
1410;SDS011;700;51.906;8.404;2022-12-29T21:30:36;11.73;;;2.77;;
1410;SDS011;700;51.906;8.404;2022-12-29T21:35:37;8.80;;;2.50;;
1410;SDS011;700;51.906;8.404;2022-12-29T21:40:40;10.53;;;2.23;;
1410;SDS011;700;51.906;8.404;2022-12-29T21:45:41;9.53;;;2.60;;
1410;SDS011;700;51.906;8.404;2022-12-29T21:50:45;10.30;;;2.90;;
1410;SDS011;700;51.906;8.404;2022-12-29T21:56:07;13.10;;;2.90;;
1410;SDS011;700;51.906;8.404;2022-12-29T22:01:12;10.37;;;3.60;;
1410;SDS011;700;51.906;8.404;2022-12-29T22:06:31;11.13;;;2.40;;
1410;SDS011;700;51.906;8.404;2022-12-29T22:11:52;12.00;;;2.70;;
1410;SDS011;700;51.906;8.404;2022-12-29T22:17:12;11.70;;;2.77;;
1410;SDS011;700;51.906;8.404;2022-12-29T22:22:17;7.97;;;2.93;;
1410;SDS011;700;51.906;8.404;2022-12-29T22:27:20;12.50;;;2.87;;
1410;SDS011;700;51.906;8.404;2022-12-29T22:32:21;9.43;;;3.30;;
1410;SDS011;700;51.906;8.404;2022-12-29T22:37:21;6.90;;;2.33;;
1410;SDS011;700;51.906;8.404;2022-12-29T22:42:23;10.37;;;2.57;;
1410;SDS011;700;51.906;8.404;2022-12-29T22:47:23;9.37;;;3.03;;
1410;SDS011;700;51.906;8.404;2022-12-29T22:52:29;8.93;;;2.53;;
1410;SDS011;700;51.906;8.404;2022-12-29T22:57:32;9.53;;;3.17;;
1410;SDS011;700;51.906;8.404;2022-12-29T23:02:33;8.03;;;2.70;;
1410;SDS011;700;51.906;8.404;2022-12-29T23:07:34;8.53;;;2.60;;
1410;SDS011;700;51.906;8.404;2022-12-29T23:12:35;9.47;;;2.40;;
1410;SDS011;700;51.906;8.404;2022-12-29T23:17:35;7.93;;;2.27;;
1410;SDS011;700;51.906;8.404;2022-12-29T23:22:38;10.90;;;2.77;;
1410;SDS011;700;51.906;8.404;2022-12-29T23:27:47;10.70;;;3.07;;
1410;SDS011;700;51.906;8.404;2022-12-29T23:32:47;14.20;;;2.47;;
1410;SDS011;700;51.906;8.404;2022-12-29T23:37:48;7.60;;;2.40;;
1410;SDS011;700;51.906;8.404;2022-12-29T23:42:49;10.70;;;3.57;;
1410;SDS011;700;51.906;8.404;2022-12-29T23:47:51;6.40;;;2.23;;
1410;SDS011;700;51.906;8.404;2022-12-29T23:52:54;7.77;;;2.57;;
1410;SDS011;700;51.906;8.404;2022-12-29T23:57:57;6.73;;;3.17;;
